createdAt,value
2018-06-28T00:00:09.227Z,2.73
2018-06-28T00:02:37.620Z,3.17
2018-06-28T00:05:05.971Z,3.00
2018-06-28T00:07:34.315Z,2.90
2018-06-28T00:10:03.373Z,2.80
2018-06-28T00:12:31.730Z,3.07
2018-06-28T00:15:00.097Z,3.40
2018-06-28T00:17:28.426Z,3.33
2018-06-28T00:19:56.780Z,3.23
2018-06-28T00:22:25.127Z,3.60
2018-06-28T00:24:53.506Z,3.47
2018-06-28T00:27:21.859Z,4.07
2018-06-28T00:29:50.220Z,3.50
2018-06-28T00:32:18.571Z,3.57
2018-06-28T00:34:46.896Z,3.80
2018-06-28T00:37:15.247Z,3.30
2018-06-28T00:39:43.609Z,3.43
2018-06-28T00:42:11.954Z,3.90
2018-06-28T00:44:40.310Z,3.00
2018-06-28T00:47:08.719Z,3.60
2018-06-28T00:49:37.067Z,3.60
2018-06-28T00:52:05.413Z,3.60
2018-06-28T00:54:33.792Z,3.67
2018-06-28T00:57:02.173Z,3.23
2018-06-28T00:59:30.515Z,3.47
2018-06-28T01:01:58.916Z,3.57
2018-06-28T01:04:27.265Z,3.70
2018-06-28T01:06:55.590Z,3.57
2018-06-28T01:09:23.952Z,3.70
2018-06-28T01:11:52.300Z,4.00
2018-06-28T01:14:20.625Z,3.20
2018-06-28T01:16:48.976Z,3.50
2018-06-28T01:19:17.307Z,3.80
2018-06-28T01:21:45.634Z,3.27
2018-06-28T01:24:13.974Z,3.40
2018-06-28T01:26:42.343Z,3.40
2018-06-28T01:29:10.692Z,3.30
2018-06-28T01:31:39.047Z,3.43
2018-06-28T01:34:07.409Z,3.63
2018-06-28T01:36:35.762Z,3.63
2018-06-28T01:39:06.756Z,3.67
2018-06-28T01:41:46.353Z,4.20
2018-06-28T01:44:14.720Z,3.70
2018-06-28T01:46:43.077Z,3.63
2018-06-28T01:49:11.450Z,3.47
2018-06-28T01:51:39.817Z,3.40
2018-06-28T01:54:08.171Z,3.73
2018-06-28T01:56:36.522Z,4.03
2018-06-28T01:59:04.836Z,3.97
2018-06-28T02:01:33.173Z,3.90
2018-06-28T02:04:01.501Z,3.43
2018-06-28T02:06:29.828Z,3.40
2018-06-28T02:08:58.160Z,4.07
2018-06-28T02:11:26.492Z,3.83
2018-06-28T02:13:54.818Z,4.23
2018-06-28T02:16:23.183Z,3.80
2018-06-28T02:18:51.540Z,3.87
2018-06-28T02:21:19.852Z,3.60
2018-06-28T02:23:48.180Z,4.10
2018-06-28T02:26:16.574Z,3.40
2018-06-28T02:28:44.888Z,3.70
2018-06-28T02:31:13.211Z,3.80
2018-06-28T02:33:41.528Z,3.93
2018-06-28T02:36:09.871Z,4.20
2018-06-28T02:38:38.209Z,4.00
2018-06-28T02:41:06.728Z,3.80
2018-06-28T02:43:35.072Z,4.40
2018-06-28T02:46:03.472Z,4.33
2018-06-28T02:48:31.816Z,4.23
2018-06-28T02:51:00.153Z,4.00
2018-06-28T02:53:28.488Z,4.10
2018-06-28T02:55:56.829Z,4.10
2018-06-28T02:58:25.173Z,4.03
2018-06-28T03:00:53.510Z,4.40
2018-06-28T03:03:21.885Z,4.63
2018-06-28T03:05:50.218Z,4.87
2018-06-28T03:08:18.544Z,4.83
2018-06-28T03:10:46.976Z,5.33
2018-06-28T03:13:15.345Z,4.70
2018-06-28T03:15:43.710Z,4.87
2018-06-28T03:18:12.176Z,5.07
2018-06-28T03:20:40.515Z,5.10
2018-06-28T03:23:08.830Z,5.10
2018-06-28T03:25:37.175Z,5.40
2018-06-28T03:28:05.523Z,5.40
2018-06-28T03:30:33.841Z,6.00
2018-06-28T03:33:02.185Z,6.47
2018-06-28T03:35:30.594Z,6.30
2018-06-28T03:37:59.043Z,7.10
2018-06-28T03:40:27.287Z,6.43
2018-06-28T03:42:55.635Z,6.03
2018-06-28T03:45:24.060Z,6.60
2018-06-28T03:47:52.420Z,6.60
2018-06-28T03:50:20.769Z,6.73
2018-06-28T03:52:49.114Z,6.47
2018-06-28T03:55:17.429Z,6.53
2018-06-28T03:57:45.785Z,6.63
2018-06-28T04:00:14.116Z,6.27
2018-06-28T04:02:42.483Z,6.67
2018-06-28T04:05:10.839Z,6.37
2018-06-28T04:07:39.165Z,6.70
2018-06-28T04:10:07.513Z,6.83
2018-06-28T04:12:35.870Z,6.10
2018-06-28T04:15:04.245Z,6.60
2018-06-28T04:17:32.567Z,6.07
2018-06-28T04:20:00.920Z,6.07
2018-06-28T04:22:30.613Z,6.67
2018-06-28T04:24:59.455Z,6.40
2018-06-28T04:27:28.578Z,6.57
2018-06-28T04:29:56.860Z,6.03
2018-06-28T04:32:25.469Z,6.07
2018-06-28T04:34:53.810Z,6.30
2018-06-28T04:37:22.120Z,5.77
2018-06-28T04:39:50.453Z,6.60
2018-06-28T04:42:18.790Z,6.50
2018-06-28T04:44:47.160Z,6.17
2018-06-28T04:47:15.483Z,6.13
2018-06-28T04:49:43.984Z,6.20
2018-06-28T04:52:12.349Z,5.50
2018-06-28T04:54:41.496Z,5.67
2018-06-28T04:57:09.965Z,5.40
2018-06-28T04:59:38.316Z,6.33
2018-06-28T05:02:06.880Z,6.17
2018-06-28T05:04:35.252Z,5.37
2018-06-28T05:07:03.607Z,5.90
2018-06-28T05:09:31.945Z,5.70
2018-06-28T05:12:00.285Z,5.10
2018-06-28T05:14:28.649Z,5.10
2018-06-28T05:16:56.996Z,5.30
2018-06-28T05:19:25.334Z,5.10
2018-06-28T05:21:53.664Z,5.03
2018-06-28T05:24:22.020Z,4.80
2018-06-28T05:26:50.356Z,5.53
2018-06-28T05:29:18.832Z,4.90
2018-06-28T05:31:47.085Z,5.33
2018-06-28T05:34:15.460Z,5.07
2018-06-28T05:36:43.809Z,4.97
2018-06-28T05:39:12.516Z,4.60
2018-06-28T05:41:40.873Z,4.93
2018-06-28T05:44:09.215Z,4.77
2018-06-28T05:46:37.565Z,4.83
2018-06-28T05:49:05.939Z,4.57
2018-06-28T05:51:34.297Z,4.90
2018-06-28T05:54:02.702Z,4.60
2018-06-28T05:56:31.050Z,4.67
2018-06-28T05:58:59.383Z,4.57
2018-06-28T06:01:27.954Z,4.50
2018-06-28T06:03:56.468Z,4.80
2018-06-28T06:06:24.844Z,4.17
2018-06-28T06:08:53.240Z,4.10
2018-06-28T06:11:21.600Z,4.50
2018-06-28T06:13:49.934Z,4.57
2018-06-28T06:16:18.289Z,4.17
2018-06-28T06:18:46.666Z,4.13
2018-06-28T06:21:15.015Z,4.33
2018-06-28T06:23:43.391Z,4.00
2018-06-28T06:26:11.804Z,3.40
2018-06-28T06:28:40.184Z,4.43
2018-06-28T06:31:08.525Z,3.97
2018-06-28T06:33:36.900Z,3.93
2018-06-28T06:36:05.628Z,3.83
2018-06-28T06:38:34.034Z,3.87
2018-06-28T06:41:02.427Z,3.90
2018-06-28T06:43:30.793Z,3.13
2018-06-28T06:45:59.246Z,3.70
2018-06-28T06:48:27.591Z,3.63
2018-06-28T06:50:55.936Z,3.00
2018-06-28T06:53:24.322Z,3.50
2018-06-28T06:55:52.687Z,3.20
2018-06-28T06:58:21.465Z,3.00
2018-06-28T07:00:49.828Z,3.20
2018-06-28T07:03:18.175Z,2.80
2018-06-28T07:05:46.511Z,2.83
2018-06-28T07:08:15.482Z,2.60
2018-06-28T07:10:43.824Z,2.67
2018-06-28T07:13:12.168Z,2.62
2018-06-28T07:15:40.557Z,2.40
2018-06-28T07:18:09.023Z,2.50
2018-06-28T07:20:37.388Z,2.17
2018-06-28T07:23:06.085Z,2.30
2018-06-28T07:25:34.436Z,3.30
2018-06-28T07:28:02.739Z,2.08
2018-06-28T07:30:31.096Z,2.22
2018-06-28T07:32:59.483Z,2.25
2018-06-28T07:35:27.903Z,2.10
2018-06-28T07:37:56.268Z,2.00
2018-06-28T07:40:24.862Z,2.02
2018-06-28T07:42:53.366Z,2.20
2018-06-28T07:45:21.724Z,2.10
2018-06-28T07:47:50.089Z,2.42
2018-06-28T07:50:18.462Z,2.45
2018-06-28T07:52:46.883Z,1.80
2018-06-28T07:55:15.291Z,2.02
2018-06-28T07:57:44.192Z,2.10
2018-06-28T08:00:12.540Z,1.80
2018-06-28T08:02:41.019Z,1.98
2018-06-28T08:05:09.391Z,1.87
2018-06-28T08:07:37.730Z,1.90
2018-06-28T08:10:06.086Z,2.10
2018-06-28T08:12:34.435Z,2.00
2018-06-28T08:15:02.839Z,1.90
2018-06-28T08:17:31.191Z,2.30
2018-06-28T08:19:59.522Z,1.90
2018-06-28T08:22:27.892Z,1.75
2018-06-28T08:24:56.357Z,1.95
2018-06-28T08:27:24.709Z,1.80
2018-06-28T08:29:53.099Z,1.72
2018-06-28T08:32:21.457Z,1.60
2018-06-28T08:34:49.840Z,1.57
2018-06-28T08:37:18.207Z,1.95
2018-06-28T08:39:46.634Z,1.92
2018-06-28T08:42:15.014Z,1.50
2018-06-28T08:44:43.352Z,1.55
2018-06-28T08:47:11.709Z,1.62
2018-06-28T08:49:40.077Z,1.62
2018-06-28T08:52:08.477Z,1.55
2018-06-28T08:54:37.152Z,2.77
2018-06-28T08:57:05.528Z,1.65
2018-06-28T08:59:33.895Z,1.70
2018-06-28T09:02:02.287Z,1.72
2018-06-28T09:04:30.860Z,2.00
2018-06-28T09:07:00.037Z,2.30
2018-06-28T09:09:28.418Z,1.55
2018-06-28T09:11:56.765Z,1.80
2018-06-28T09:14:25.175Z,1.82
2018-06-28T09:16:53.552Z,1.57
2018-06-28T09:19:21.901Z,1.90
2018-06-28T09:21:50.312Z,1.80
2018-06-28T09:24:18.664Z,1.57
2018-06-28T09:26:47.032Z,2.00
2018-06-28T09:29:15.417Z,1.70
2018-06-28T09:31:43.763Z,2.00
2018-06-28T09:34:12.220Z,2.00
2018-06-28T09:36:40.656Z,2.02
2018-06-28T09:39:10.327Z,2.00
2018-06-28T09:41:38.675Z,1.67
2018-06-28T09:44:07.119Z,1.60
2018-06-28T09:46:35.465Z,2.05
2018-06-28T09:49:03.888Z,2.27
2018-06-28T09:51:32.214Z,2.00
2018-06-28T09:54:00.575Z,1.90
2018-06-28T09:56:28.950Z,1.80
2018-06-28T09:58:57.331Z,1.82
2018-06-28T10:01:25.712Z,1.50
2018-06-28T10:03:54.158Z,1.70
2018-06-28T10:06:22.569Z,1.65
2018-06-28T10:08:50.921Z,1.80
2018-06-28T10:11:19.308Z,1.75
2018-06-28T10:13:47.670Z,1.72
2018-06-28T10:16:16.051Z,1.92
2018-06-28T10:18:44.492Z,1.90
2018-06-28T10:21:12.948Z,2.12
2018-06-28T10:23:41.327Z,1.95
2018-06-28T10:26:09.668Z,1.87
2018-06-28T10:28:38.024Z,2.20
2018-06-28T10:31:06.427Z,2.00
2018-06-28T10:33:35.197Z,2.05
2018-06-28T10:36:03.596Z,2.10
2018-06-28T10:38:31.974Z,1.87
2018-06-28T10:41:00.337Z,1.90
2018-06-28T10:43:28.696Z,2.20
2018-06-28T10:45:57.051Z,1.95
2018-06-28T10:48:25.418Z,1.92
2018-06-28T10:50:53.770Z,2.10
2018-06-28T10:53:22.147Z,2.17
2018-06-28T10:55:50.975Z,1.80
2018-06-28T10:58:19.492Z,1.82
2018-06-28T11:00:47.863Z,2.15
2018-06-28T11:03:16.212Z,2.08
2018-06-28T11:05:44.656Z,2.37
2018-06-28T11:08:13.119Z,2.10
2018-06-28T11:10:41.516Z,2.40
2018-06-28T11:13:09.862Z,2.27
2018-06-28T11:15:38.302Z,2.50
2018-06-28T11:18:06.698Z,2.70
2018-06-28T11:20:35.071Z,2.50
2018-06-28T11:23:03.473Z,2.50
2018-06-28T11:25:31.896Z,2.43
2018-06-28T11:28:00.300Z,2.50
2018-06-28T11:30:28.687Z,2.33
2018-06-28T11:32:58.155Z,2.60
2018-06-28T11:35:26.630Z,2.43
2018-06-28T11:37:55.054Z,2.57
2018-06-28T11:40:23.442Z,2.50
2018-06-28T11:42:52.184Z,2.40
2018-06-28T11:45:20.559Z,2.03
2018-06-28T11:47:48.979Z,2.30
2018-06-28T11:50:17.354Z,2.20
2018-06-28T11:52:45.706Z,2.40
2018-06-28T11:55:14.060Z,2.70
2018-06-28T11:57:42.624Z,2.23
2018-06-28T12:00:11.092Z,2.20
2018-06-28T12:02:39.456Z,2.47
2018-06-28T12:05:07.795Z,2.40
2018-06-28T12:07:36.218Z,2.13
2018-06-28T12:10:04.940Z,2.50
2018-06-28T12:12:33.250Z,2.10
2018-06-28T12:15:01.595Z,2.40
2018-06-28T12:17:29.970Z,2.20
2018-06-28T12:19:58.385Z,2.27
2018-06-28T12:22:26.811Z,2.60
2018-06-28T12:24:55.131Z,2.03
2018-06-28T12:27:23.457Z,2.43
2018-06-28T12:29:51.775Z,2.40
2018-06-28T12:32:20.119Z,2.70
2018-06-28T12:34:48.464Z,2.00
2018-06-28T12:37:16.805Z,2.33
2018-06-28T12:39:45.164Z,2.10
2018-06-28T12:42:13.522Z,2.27
2018-06-28T12:44:42.009Z,2.40
2018-06-28T12:47:55.982Z,2.43
2018-06-28T12:50:24.331Z,2.07
2018-06-28T12:53:01.967Z,2.03
2018-06-28T12:55:43.180Z,2.27
2018-06-28T12:58:11.543Z,2.70
2018-06-28T13:00:39.934Z,2.20
2018-06-28T13:03:08.272Z,2.10
2018-06-28T13:05:36.609Z,2.13
2018-06-28T13:08:04.961Z,2.20
2018-06-28T13:10:33.343Z,2.00
2018-06-28T13:13:01.692Z,2.40
2018-06-28T13:15:30.057Z,2.03
2018-06-28T13:17:58.419Z,2.00
2018-06-28T13:20:26.819Z,2.40
2018-06-28T13:22:55.179Z,2.30
2018-06-28T13:25:23.519Z,2.20
2018-06-28T13:27:51.879Z,2.20
2018-06-28T13:30:20.258Z,2.20
2018-06-28T13:32:48.608Z,2.10
2018-06-28T13:35:16.925Z,2.00
2018-06-28T13:37:45.278Z,2.27
2018-06-28T13:40:13.746Z,2.20
2018-06-28T13:42:42.066Z,2.40
2018-06-28T13:45:10.411Z,2.20
2018-06-28T13:47:38.787Z,2.20
2018-06-28T13:50:07.168Z,2.37
2018-06-28T13:52:35.547Z,2.30
2018-06-28T13:55:04.003Z,2.53
2018-06-28T13:57:32.430Z,2.27
2018-06-28T14:00:00.748Z,2.10
2018-06-28T14:02:29.095Z,2.30
2018-06-28T14:04:57.435Z,2.40
2018-06-28T14:07:25.764Z,2.17
2018-06-28T14:09:54.148Z,2.37
2018-06-28T14:12:22.560Z,2.00
2018-06-28T14:14:50.994Z,1.97
2018-06-28T14:17:19.432Z,1.93
2018-06-28T14:19:47.843Z,2.60
2018-06-28T14:22:16.254Z,2.10
2018-06-28T14:24:44.590Z,2.70
2018-06-28T14:27:13.836Z,2.27
2018-06-28T14:29:42.207Z,2.20
2018-06-28T14:32:10.539Z,2.43
2018-06-28T14:34:38.904Z,1.93
2018-06-28T14:37:07.327Z,2.23
2018-06-28T14:39:35.664Z,2.20
2018-06-28T14:42:04.132Z,2.10
2018-06-28T14:44:33.121Z,2.20
2018-06-28T14:47:01.484Z,2.60
2018-06-28T14:49:29.852Z,2.40
2018-06-28T14:51:58.217Z,2.30
2018-06-28T14:54:26.566Z,2.10
2018-06-28T14:56:54.988Z,2.40
2018-06-28T14:59:23.428Z,2.60
2018-06-28T15:01:51.774Z,2.33
2018-06-28T15:04:20.136Z,2.20
2018-06-28T15:06:48.501Z,2.20
2018-06-28T15:09:16.851Z,2.43
2018-06-28T15:11:45.333Z,2.47
2018-06-28T15:14:14.013Z,2.40
2018-06-28T15:16:42.387Z,2.27
2018-06-28T15:19:10.775Z,2.33
2018-06-28T15:21:39.187Z,3.00
2018-06-28T15:24:07.517Z,2.43
2018-06-28T15:26:35.963Z,2.10
2018-06-28T15:29:04.441Z,2.43
2018-06-28T15:31:32.783Z,2.57
2018-06-28T15:34:01.175Z,2.10
2018-06-28T15:36:29.553Z,2.47
2018-06-28T15:38:58.200Z,2.43
2018-06-28T15:41:26.566Z,2.10
2018-06-28T15:43:54.933Z,2.00
2018-06-28T15:46:23.576Z,2.00
2018-06-28T15:48:51.947Z,2.40
2018-06-28T15:51:20.313Z,2.40
2018-06-28T15:53:48.771Z,2.20
2018-06-28T15:56:17.145Z,2.27
2018-06-28T15:58:45.500Z,2.30
2018-06-28T16:01:13.856Z,2.30
2018-06-28T16:03:42.520Z,2.10
2018-06-28T16:06:10.878Z,2.30
2018-06-28T16:08:39.367Z,1.90
2018-06-28T16:11:07.742Z,2.37
2018-06-28T16:13:36.114Z,2.23
2018-06-28T16:16:04.491Z,2.23
2018-06-28T16:18:33.282Z,2.13
2018-06-28T16:21:01.641Z,2.00
2018-06-28T16:23:30.034Z,2.50
2018-06-28T16:25:58.414Z,2.00
2018-06-28T16:28:26.797Z,2.27
2018-06-28T16:30:55.173Z,2.50
2018-06-28T16:33:23.568Z,2.63
2018-06-28T16:35:51.933Z,2.77
2018-06-28T16:38:20.282Z,2.13
2018-06-28T16:40:48.817Z,2.13
2018-06-28T16:43:18.021Z,2.73
2018-06-28T16:45:46.376Z,2.10
2018-06-28T16:48:14.734Z,2.50
2018-06-28T16:50:43.100Z,2.33
2018-06-28T16:53:11.486Z,2.33
2018-06-28T16:55:40.122Z,2.30
2018-06-28T16:58:09.303Z,2.67
2018-06-28T17:00:37.671Z,2.27
2018-06-28T17:03:06.075Z,2.83
2018-06-28T17:05:34.555Z,2.30
2018-06-28T17:08:03.019Z,2.10
2018-06-28T17:10:31.395Z,2.73
2018-06-28T17:12:59.747Z,2.20
2018-06-28T17:15:28.080Z,2.40
2018-06-28T17:17:56.440Z,2.27
2018-06-28T17:20:24.884Z,2.00
2018-06-28T17:22:53.729Z,2.30
2018-06-28T17:25:22.076Z,2.27
2018-06-28T17:27:50.631Z,2.03
2018-06-28T17:30:18.966Z,2.30
2018-06-28T17:32:47.397Z,2.40
2018-06-28T17:35:16.264Z,2.20
2018-06-28T17:37:44.657Z,2.47
2018-06-28T17:40:13.052Z,2.50
2018-06-28T17:42:41.392Z,2.30
2018-06-28T17:45:09.765Z,2.77
2018-06-28T17:47:38.178Z,2.77
2018-06-28T17:50:06.527Z,2.70
2018-06-28T17:52:34.895Z,2.30
2018-06-28T17:55:03.357Z,2.70
2018-06-28T17:57:31.736Z,2.70
2018-06-28T18:00:00.176Z,3.80
2018-06-28T18:02:28.554Z,2.17
2018-06-28T18:04:56.965Z,2.57
2018-06-28T18:07:25.295Z,2.10
2018-06-28T18:09:53.618Z,2.23
2018-06-28T18:12:21.969Z,2.10
2018-06-28T18:14:50.378Z,2.20
2018-06-28T18:17:18.727Z,2.43
2018-06-28T18:19:47.105Z,2.40
2018-06-28T18:22:15.453Z,2.47
2018-06-28T18:24:43.815Z,2.30
2018-06-28T18:27:12.201Z,2.57
2018-06-28T18:29:40.548Z,2.30
2018-06-28T18:32:08.871Z,2.20
2018-06-28T18:34:37.306Z,2.20
2018-06-28T18:37:05.788Z,2.60
2018-06-28T18:39:34.137Z,2.20
2018-06-28T18:42:02.485Z,2.30
2018-06-28T18:44:30.928Z,2.13
2018-06-28T18:46:59.278Z,2.23
2018-06-28T18:49:27.606Z,2.30
2018-06-28T18:51:56.078Z,2.10
2018-06-28T18:54:24.525Z,2.30
2018-06-28T18:56:52.946Z,2.50
2018-06-28T18:59:21.407Z,2.50
2018-06-28T19:01:49.785Z,2.63
2018-06-28T19:04:18.136Z,2.60
2018-06-28T19:06:46.532Z,2.10
2018-06-28T19:09:14.838Z,2.30
2018-06-28T19:11:43.231Z,2.10
2018-06-28T19:14:17.099Z,2.43
2018-06-28T19:16:50.866Z,2.55
2018-06-28T19:19:19.220Z,2.50
2018-06-28T19:21:52.931Z,2.00
2018-06-28T19:24:21.243Z,2.40
2018-06-28T19:26:49.707Z,2.37
2018-06-28T19:29:23.255Z,2.40
2018-06-28T19:31:56.960Z,2.20
2018-06-28T19:34:25.290Z,2.20
2018-06-28T19:36:54.283Z,1.90
2018-06-28T19:39:27.874Z,2.40
2018-06-28T19:42:01.566Z,1.90
2018-06-28T19:44:30.736Z,2.20
2018-06-28T19:46:59.085Z,2.20
2018-06-28T19:49:32.735Z,2.30
2018-06-28T19:52:06.234Z,2.10
2018-06-28T19:54:34.910Z,2.10
2018-06-28T19:57:03.365Z,2.40
2018-06-28T19:59:35.895Z,2.27
2018-06-28T20:02:09.631Z,2.30
2018-06-28T20:04:43.285Z,2.50
2018-06-28T20:07:11.734Z,2.40
2018-06-28T20:09:40.078Z,2.60
2018-06-28T20:12:12.540Z,2.33
2018-06-28T20:14:46.226Z,2.67
2018-06-28T20:17:19.919Z,2.20
2018-06-28T20:19:53.751Z,2.40
2018-06-28T20:22:22.098Z,2.43
2018-06-28T20:24:50.713Z,2.30
2018-06-28T20:27:24.380Z,2.30
2018-06-28T20:29:58.090Z,2.30
2018-06-28T20:32:31.931Z,2.20
2018-06-28T20:35:00.407Z,2.20
2018-06-28T20:37:28.788Z,2.10
2018-06-28T20:39:57.132Z,2.30
2018-06-28T20:42:25.543Z,2.73
2018-06-28T20:44:53.897Z,2.20
2018-06-28T20:47:22.232Z,2.47
2018-06-28T20:49:50.663Z,2.60
2018-06-28T20:52:19.032Z,2.27
2018-06-28T20:54:47.419Z,2.23
2018-06-28T20:57:15.831Z,2.70
2018-06-28T20:59:44.199Z,2.50
2018-06-28T21:02:12.543Z,2.50
2018-06-28T21:04:40.921Z,2.70
2018-06-28T21:07:09.270Z,2.60
2018-06-28T21:09:37.653Z,2.83
2018-06-28T21:12:06.115Z,2.90
2018-06-28T21:14:34.472Z,2.73
2018-06-28T21:17:02.851Z,2.50
2018-06-28T21:19:31.204Z,2.47
2018-06-28T21:21:59.547Z,2.90
2018-06-28T21:24:27.857Z,2.60
2018-06-28T21:26:56.200Z,2.53
2018-06-28T21:29:24.525Z,2.03
2018-06-28T21:31:52.876Z,2.30
2018-06-28T21:34:21.678Z,2.30
2018-06-28T21:36:50.064Z,2.53
2018-06-28T21:39:18.370Z,2.70
2018-06-28T21:41:46.702Z,2.27
2018-06-28T21:44:15.129Z,2.57
2018-06-28T21:46:43.454Z,2.70
2018-06-28T21:49:11.776Z,2.40
2018-06-28T21:51:40.095Z,2.50
2018-06-28T21:54:08.406Z,2.50
2018-06-28T21:56:36.899Z,2.90
2018-06-28T21:59:05.233Z,2.63
2018-06-28T22:01:33.575Z,2.60
2018-06-28T22:04:01.875Z,2.67
2018-06-28T22:06:30.196Z,2.40
2018-06-28T22:08:58.574Z,2.67
2018-06-28T22:11:26.891Z,2.43
2018-06-28T22:13:55.365Z,2.57
2018-06-28T22:16:23.677Z,2.67
2018-06-28T22:18:51.994Z,2.40
2018-06-28T22:21:20.295Z,2.50
2018-06-28T22:23:48.606Z,2.70
2018-06-28T22:26:16.954Z,2.83
2018-06-28T22:28:45.270Z,2.93
2018-06-28T22:31:13.612Z,2.33
2018-06-28T22:33:41.931Z,2.77
2018-06-28T22:36:10.268Z,2.70
2018-06-28T22:38:38.577Z,2.43
2018-06-28T22:41:07.154Z,2.87
2018-06-28T22:43:35.523Z,2.23
2018-06-28T22:46:03.916Z,2.43
2018-06-28T22:48:32.470Z,2.47
2018-06-28T22:51:00.790Z,2.50
2018-06-28T22:53:29.735Z,2.77
2018-06-28T22:55:58.052Z,2.80
2018-06-28T22:58:26.395Z,2.93
2018-06-28T23:00:54.740Z,2.63
2018-06-28T23:03:23.061Z,2.80
2018-06-28T23:05:51.565Z,2.93
2018-06-28T23:08:19.916Z,2.93
2018-06-28T23:10:48.291Z,2.73
2018-06-28T23:13:16.666Z,3.00
2018-06-28T23:15:44.982Z,2.77
2018-06-28T23:18:13.325Z,2.70
2018-06-28T23:20:41.765Z,3.10
2018-06-28T23:23:10.131Z,2.90
2018-06-28T23:25:38.481Z,2.70
2018-06-28T23:28:06.818Z,2.50
2018-06-28T23:30:35.191Z,2.90
2018-06-28T23:33:03.586Z,2.90
2018-06-28T23:35:31.910Z,3.00
2018-06-28T23:38:00.336Z,2.60
2018-06-28T23:40:28.698Z,2.63
2018-06-28T23:42:57.093Z,2.90
2018-06-28T23:45:25.818Z,2.83
2018-06-28T23:47:54.243Z,2.70
2018-06-28T23:50:22.564Z,2.53
2018-06-28T23:52:50.884Z,2.97
2018-06-28T23:55:19.636Z,3.00
2018-06-28T23:57:48.117Z,2.80
